| time (UTC) | temp C | wind direction | speed KPH | gust KPH | rain 1hr cm | rain 24hr cm | rain mn cm | humidity % | barometer mb |
| 20260906214541 | 29 | 302 | 11.3 | 24.1 | 0.00 | 0.00 | 0.00 | 27 | 1003.3 |
| 20260906213037 | 30 | 342 | 4.8 | 20.9 | 0.00 | 0.00 | 0.00 | 25 | 1003.5 |
| 20260906211540 | 30 | 326 | 3.2 | 16.1 | 0.00 | 0.00 | 0.00 | 23 | 1003.7 |
| 20260906210034 | 31 | 320 | 4.8 | 19.3 | 0.00 | 0.00 | 0.00 | 21 | 1003.9 |
| 20260906204554 | 31 | 309 | 6.4 | 14.5 | 0.00 | 0.00 | 0.00 | 20 | 1004.0 |
| 20260906203033 | 31 | 310 | 1.6 | 22.5 | 0.00 | 0.00 | 0.00 | 20 | 1004.4 |
| 20260906201530 | 31 | 300 | 6.4 | 24.1 | 0.00 | 0.00 | 0.00 | 20 | 1004.5 |
| 20260906200028 | 31 | 287 | 3.2 | 17.7 | 0.00 | 0.00 | 0.00 | 20 | 1004.6 |
| 20260906194528 | 31 | 308 | 3.2 | 17.7 | 0.00 | 0.00 | 0.00 | 20 | 1004.7 |
| 20260906193024 | 31 | 325 | 11.3 | 19.3 | 0.00 | 0.00 | 0.00 | 19 | 1004.9 |
| 20260906191527 | 30 | 336 | 4.8 | 17.7 | 0.00 | 0.00 | 0.00 | 21 | 1005.1 |
| 20260906190019 | 30 | 316 | 3.2 | 14.5 | 0.00 | 0.00 | 0.00 | 22 | 1005.3 |
| 20260906184515 | 29 | 210 | 4.8 | 14.5 | 0.00 | 0.00 | 0.00 | 25 | 1005.8 |
| 20260906183016 | 29 | 202 | 1.6 | 9.7 | 0.00 | 0.00 | 0.00 | 25 | 1006.1 |
| 20260906181508 | 28 | 201 | 1.6 | 6.4 | 0.00 | 0.00 | 0.00 | 27 | 1006.5 |
| 20260906180005 | 27 | 201 | 3.2 | 8.0 | 0.00 | 0.00 | 0.00 | 27 | 1007.0 |
| 20260906174600 | 27 | 201 | 1.6 | 8.0 | 0.00 | 0.00 | 0.00 | 29 | 1007.3 |
| 20260906173101 | 27 | 200 | 4.8 | 8.0 | 0.00 | 0.00 | 0.00 | 28 | 1007.4 |
| 20260906171557 | 26 | 194 | 1.6 | 4.8 | 0.00 | 0.00 | 0.00 | 31 | 1007.6 |
| 20260906170058 | 25 | 200 | 1.6 | 3.2 | 0.00 | 0.00 | 0.00 | 34 | 1007.6 |
| 20260906164544 | 24 | 200 | 0.0 | 6.4 | 0.00 | 0.00 | 0.00 | 35 | 1007.6 |
| 20260906163044 | 23 | 200 | 1.6 | 4.8 | 0.00 | 0.00 | 0.00 | 37 | 1007.8 |
| 20260906161536 | 22 | 200 | 0.0 | 4.8 | 0.00 | 0.00 | 0.00 | 43 | 1008.0 |
| 20260906160031 | 22 | 76 | 0.0 | 6.4 | 0.00 | 0.00 | 0.00 | 43 | 1007.8 |
| 20260906154528 | 21 | 71 | 1.6 | 8.0 | 0.00 | 0.00 | 0.00 | 47 | 1007.7 |
| 20260906153028 | 21 | 66 | 0.0 | 4.8 | 0.00 | 0.00 | 0.00 | 50 | 1007.8 |
| 20260906151526 | 20 | 62 | 1.6 | 4.8 | 0.00 | 0.00 | 0.00 | 54 | 1008.0 |
| 20260906150030 | 18 | 62 | 1.6 | 8.0 | 0.00 | 0.00 | 0.00 | 54 | 1008.1 |
| 20260906144529 | 17 | 62 | 0.0 | 3.2 | 0.00 | 0.00 | 0.00 | 56 | 1008.3 |
| 20260906143033 | 16 | 62 | 0.0 | 4.8 | 0.00 | 0.00 | 0.00 | 57 | 1008.2 |
| 20260906141529 | 15 | 62 | 0.0 | 4.8 | 0.00 | 0.00 | 0.00 | 58 | 1008.4 |
| 20260906140031 | 15 | 62 | 1.6 | 6.4 | 0.00 | 0.00 | 0.00 | 59 | 1008.4 |
| 20260906134520 | 13 | 62 | 3.2 | 6.4 | 0.00 | 0.00 | 0.00 | 61 | 1008.2 |
| 20260906133019 | 13 | 62 | 0.0 | 1.6 | 0.00 | 0.00 | 0.00 | 63 | 1008.0 |
| 20260906131531 | 13 | 63 | 0.0 | 0.0 | 0.00 | 0.00 | 0.00 | 62 | 1007.8 |
| 20260906130014 | 12 | 62 | 0.0 | 3.2 | 0.00 | 0.00 | 0.00 | 62 | 1007.8 |
| 20260906124511 | 12 | 62 | 3.2 | 9.7 | 0.00 | 0.00 | 0.00 | 61 | 1007.8 |
| 20260906123007 | 13 | 66 | 3.2 | 6.4 | 0.00 | 0.00 | 0.00 | 59 | 1007.6 |
| 20260906121507 | 13 | 66 | 0.0 | 8.0 | 0.00 | 0.00 | 0.00 | 58 | 1007.4 |
| 20260906120003 | 13 | 67 | 0.0 | 3.2 | 0.00 | 0.00 | 0.00 | 58 | 1007.1 |
| 20260906114602 | 13 | 67 | 0.0 | 1.6 | 0.00 | 0.00 | 0.00 | 57 | 1007.2 |
| 20260906113102 | 14 | 67 | 0.0 | 1.6 | 0.00 | 0.00 | 0.00 | 57 | 1007.1 |
| 20260906111609 | 14 | 67 | 0.0 | 3.2 | 0.00 | 0.00 | 0.00 | 56 | 1007.0 |
| 20260906110055 | 15 | 67 | 0.0 | 1.6 | 0.00 | 0.00 | 0.00 | 56 | 1007.0 |
| 20260906104552 | 15 | 67 | 0.0 | 1.6 | 0.00 | 0.00 | 0.00 | 56 | 1006.9 |
| 20260906103051 | 15 | 67 | 0.0 | 6.4 | 0.00 | 0.00 | 0.00 | 56 | 1007.0 |
| 20260906101549 | 15 | 128 | 1.6 | 6.4 | 0.00 | 0.00 | 0.00 | 54 | 1006.9 |
| 20260906100047 | 16 | 128 | 0.0 | 1.6 | 0.00 | 0.00 | 0.00 | 52 | 1006.9 |
| 20260906094544 | 16 | 128 | 1.6 | 4.8 | 0.00 | 0.00 | 0.00 | 50 | 1006.8 |
| 20260906093042 | 16 | 128 | 1.6 | 4.8 | 0.00 | 0.00 | 0.00 | 50 | 1006.8 |
| 20260906091540 | 17 | 128 | 0.0 | 1.6 | 0.00 | 0.00 | 0.00 | 49 | 1006.7 |
| 20260906090038 | 17 | 128 | 0.0 | 1.6 | 0.00 | 0.00 | 0.00 | 49 | 1006.6 |
| 20260906084546 | 17 | 128 | 0.0 | 3.2 | 0.00 | 0.00 | 0.00 | 48 | 1006.5 |
| 20260906083036 | 18 | 128 | 1.6 | 4.8 | 0.00 | 0.00 | 0.00 | 47 | 1006.7 |
| 20260906081530 | 18 | 129 | 1.6 | 4.8 | 0.00 | 0.00 | 0.00 | 42 | 1006.9 |
| 20260906080031 | 19 | 129 | 0.0 | 0.0 | 0.00 | 0.00 | 0.00 | 41 | 1006.8 |
| 20260906074524 | 19 | 129 | 0.0 | 3.2 | 0.00 | 0.00 | 0.00 | 39 | 1007.0 |
| 20260906073021 | 20 | 129 | 0.0 | 1.6 | 0.00 | 0.00 | 0.00 | 39 | 1006.8 |
| 20260906071519 | 20 | 129 | 0.0 | 3.2 | 0.00 | 0.00 | 0.00 | 39 | 1006.7 |
| 20260906070016 | 20 | 129 | 0.0 | 0.0 | 0.00 | 0.00 | 0.00 | 38 | 1006.6 |
| 20260906064514 | 21 | 129 | 0.0 | 0.0 | 0.00 | 0.00 | 0.00 | 37 | 1006.6 |
| 20260906063011 | 21 | 129 | 0.0 | 3.2 | 0.00 | 0.00 | 0.00 | 36 | 1006.5 |
| 20260906061507 | 22 | 129 | 0.0 | 3.2 | 0.00 | 0.00 | 0.00 | 36 | 1006.6 |
| 20260906060008 | 22 | 129 | 1.6 | 8.0 | 0.00 | 0.00 | 0.00 | 33 | 1006.7 |
| 20260906054503 | 22 | 181 | 3.2 | 9.7 | 0.00 | 0.00 | 0.00 | 32 | 1006.7 |
| 20260906053002 | 22 | 333 | 0.0 | 0.0 | 0.00 | 0.00 | 0.00 | 36 | 1006.7 |
| 20260906051501 | 22 | 333 | 0.0 | 0.0 | 0.00 | 0.00 | 0.00 | 37 | 1006.8 |
| 20260906050002 | 23 | 333 | 0.0 | 0.0 | 0.00 | 0.00 | 0.00 | 36 | 1006.8 |
| 20260906044503 | 23 | 333 | 0.0 | 0.0 | 0.00 | 0.00 | 0.00 | 37 | 1006.9 |
| 20260906043002 | 23 | 333 | 0.0 | 0.0 | 0.00 | 0.00 | 0.00 | 38 | 1007.0 |
| 20260906041610 | 23 | 333 | 0.0 | 0.0 | 0.00 | 0.00 | 0.00 | 37 | 1007.0 |
| 20260906040108 | 24 | 333 | 0.0 | 1.6 | 0.00 | 0.00 | 0.00 | 37 | 1007.2 |
| 20260906034559 | 24 | 333 | 0.0 | 3.2 | 0.00 | 0.00 | 0.00 | 37 | 1007.3 |
| 20260906033100 | 24 | 333 | 0.0 | 12.9 | 0.00 | 0.00 | 0.00 | 35 | 1007.4 |
| 20260906031601 | 23 | 360 | 11.3 | 20.9 | 0.00 | 0.00 | 0.00 | 38 | 1007.2 |
| 20260906030055 | 23 | 165 | 0.0 | 8.0 | 0.00 | 0.00 | 0.00 | 24 | 1006.3 |
| 20260906024611 | 23 | 164 | 1.6 | 11.3 | 0.00 | 0.00 | 0.00 | 24 | 1006.1 |
| 20260906023054 | 24 | 22 | 0.0 | 4.8 | 0.00 | 0.00 | 0.00 | 20 | 1005.7 |
| 20260906021553 | 25 | 22 | 0.0 | 0.0 | 0.00 | 0.00 | 0.00 | 19 | 1005.6 |
| 20260906020052 | 26 | 22 | 0.0 | 0.0 | 0.00 | 0.00 | 0.00 | 18 | 1005.5 |
| 20260906014602 | 27 | 22 | 0.0 | 1.6 | 0.00 | 0.00 | 0.00 | 17 | 1005.5 |
| 20260906013051 | 27 | 22 | 0.0 | 3.2 | 0.00 | 0.00 | 0.00 | 16 | 1005.4 |
| 20260906011550 | 28 | 22 | 0.0 | 0.0 | 0.00 | 0.00 | 0.00 | 15 | 1005.2 |
| 20260906010049 | 28 | 22 | 0.0 | 4.8 | 0.00 | 0.00 | 0.00 | 15 | 1005.2 |
| 20260906004549 | 28 | 336 | 0.0 | 12.9 | 0.00 | 0.00 | 0.00 | 15 | 1005.4 |
| 20260906003108 | 29 | 337 | 3.2 | 9.7 | 0.00 | 0.00 | 0.00 | 14 | 1005.4 |
| 20260906001549 | 29 | 337 | 3.2 | 6.4 | 0.00 | 0.00 | 0.00 | 14 | 1005.3 |
| 20260905234548 | 30 | 5 | 6.4 | 14.5 | 0.00 | 0.00 | 0.00 | 13 | 1005.2 |
| 20260905233047 | 30 | 360 | 6.4 | 20.9 | 0.00 | 0.00 | 0.00 | 14 | 1005.0 |
| 20260905231546 | 30 | 216 | 0.0 | 3.2 | 0.00 | 0.00 | 0.00 | 12 | 1005.1 |
| 20260905230046 | 31 | 216 | 0.0 | 4.8 | 0.00 | 0.00 | 0.00 | 12 | 1005.0 |
| 20260905224544 | 30 | 217 | 1.6 | 4.8 | 0.00 | 0.00 | 0.00 | 11 | 1004.9 |
| 20260905223044 | 30 | 216 | 0.0 | 3.2 | 0.00 | 0.00 | 0.00 | 11 | 1004.9 |
| 20260905221545 | 30 | 216 | 0.0 | 3.2 | 0.00 | 0.00 | 0.00 | 12 | 1005.0 |
| 20260905220045 | 31 | 216 | 0.0 | 8.0 | 0.00 | 0.00 | 0.00 | 12 | 1004.9 |